Stations météo

réclame
Mon MeteoGroup
Humain, Belgique (6472): Température de l'air & dewpoint: 17.09.2017 23:00:00 - 23.09.2017 23:00:00 (CEST)Humain, Belgique (6472): Vitesse du vent & gusts: 17.09.2017 23:00:00 - 23.09.2017 23:00:00 (CEST)Humain, Belgique (6472): Direction du vent: 17.09.2017 23:00:00 - 23.09.2017 23:00:00 (CEST)Humain, Belgique (6472): reduced air pressure: 17.09.2017 23:00:00 - 23.09.2017 23:00:00 (CEST)Humain, Belgique (6472): Ensoleillement: 17.09.2017 23:00:00 - 23.09.2017 23:00:00 (CEST)Humain, Belgique (6472): Quantités de précipitations: 17.09.2017 23:00:00 - 23.09.2017 23:00:00 (CEST)
Date & Time tt [°C] td [°C] ff [km/h] ff [knt] fx [km/h] fx [knt] dd ppp [hPa] sd [min] rr [mm]
23.09.2017 23:00:00 10,6 8,7 11 6 - - NNE 1023,6 - -
23.09.2017 22:00:00 11,3 8,8 12 6 16 9 NNE 1023,5 0 0,0
23.09.2017 21:00:00 12,2 8,9 11 6 15 8 NNE 1023,1 0 0,0
23.09.2017 20:00:00 12,9 9,2 11 6 14 7 NNE 1023,0 23 0,0
23.09.2017 19:00:00 15,1 8,7 8 5 16 9 N 1022,5 60 0,0
23.09.2017 18:00:00 16,6 8,6 10 5 15 8 N 1022,3 60 0,0
23.09.2017 17:00:00 17,5 9,2 5 3 14 8 NW 1022,5 60 0,0
23.09.2017 16:00:00 16,9 8,8 7 4 18 10 ENE 1023,2 60 0,0
23.09.2017 15:00:00 16,5 8,2 7 4 16 9 NNE 1023,7 60 0,0
23.09.2017 14:00:00 15,8 9,8 11 6 16 9 N 1024,0 60 0,0
23.09.2017 13:00:00 13,5 12,8 11 6 16 8 NNE 1024,6 60 0,0
23.09.2017 12:00:00 10,5 10,2 7 4 14 7 NE 1025,5 47 0,0
23.09.2017 11:00:00 9,9 9,7 6 4 10 6 NNE 1025,6 0 0,0
23.09.2017 10:00:00 9,4 9,2 6 3 9 5 NE 1025,6 0 0,0
23.09.2017 09:00:00 9,2 9,0 4 2 7 4 N 1025,3 0 0,0
23.09.2017 08:00:00 8,9 8,7 4 2 7 4 ENE 1025,4 0 0,0
23.09.2017 07:00:00 9,4 9,1 4 2 6 3 ENE 1025,3 0 0,0
23.09.2017 06:00:00 9,1 8,8 4 2 5 3 ESE 1025,1 0 0,0
23.09.2017 05:00:00 8,8 8,5 4 2 4 2 NNW 1025,3 0 0,0
23.09.2017 04:00:00 8,5 8,2 0 0 6 3 N 1025,3 0 0,0
23.09.2017 03:00:00 10,0 9,6 0 0 6 4 N 1025,0 0 0,0
23.09.2017 02:00:00 9,9 9,3 4 2 7 4 ESE 1025,0 0 0,0
23.09.2017 01:00:00 11,2 10,3 4 2 6 4 E 1024,6 0 0,0
23.09.2017 00:00:00 11,8 10,8 0 0 4 2 N 1024,4 0 0,0
22.09.2017 23:00:00 12,2 10,9 0 0 8 4 N 1024,4 0 0,0
22.09.2017 22:00:00 13,3 10,9 6 3 7 4 WNW 1023,9 0 0,0
22.09.2017 21:00:00 14,1 11,4 4 2 8 4 WNW 1023,6 0 0,0
22.09.2017 20:00:00 14,2 10,9 7 4 8 5 W 1022,9 8 0,0
22.09.2017 19:00:00 15,5 11,5 4 2 11 6 WNW 1022,2 6 0,0
22.09.2017 18:00:00 15,9 11,6 8 4 15 8 WNW 1022,0 1 0,0
22.09.2017 17:00:00 16,7 10,2 8 4 12 7 W 1021,8 42 0,0
22.09.2017 16:00:00 16,6 9,2 6 3 9 5 WSW 1021,8 17 0,0
22.09.2017 15:00:00 16,4 8,5 8 4 10 6 WSW 1021,9 0 0,0
22.09.2017 14:00:00 16,2 8,3 4 2 9 5 W 1021,8 30 0,0
22.09.2017 13:00:00 16,0 10,3 5 3 11 6 SSW 1021,5 50 0,0
22.09.2017 12:00:00 13,3 9,5 5 3 6 3 WSW 1021,8 59 0,0
22.09.2017 11:00:00 12,9 9,6 4 2 8 4 S 1021,8 60 0,0
22.09.2017 10:00:00 10,2 8,5 4 2 7 4 SSE 1021,9 60 0,0
22.09.2017 09:00:00 8,6 7,5 7 4 14 7 E 1021,6 50 0,0
22.09.2017 08:00:00 7,4 6,4 7 4 10 5 E 1021,4 4 0,0
22.09.2017 07:00:00 6,9 5,8 8 4 9 5 E 1021,2 0 0,0
22.09.2017 06:00:00 7,4 6,1 6 4 11 6 E 1021,2 0 0,0
22.09.2017 05:00:00 7,7 6,6 9 5 10 6 E 1021,0 0 0,0
22.09.2017 04:00:00 - - - - - - - - - -
22.09.2017 03:00:00 - - - - - - - - 0 -
22.09.2017 02:00:00 8,3 6,9 7 4 13 7 E 1021,3 0 0,0
22.09.2017 01:00:00 8,8 7,1 11 6 12 6 E 1021,1 0 0,0
22.09.2017 00:00:00 9,9 7,6 6 4 10 6 E 1020,9 0 0,0
21.09.2017 23:00:00 10,5 8,2 6 4 10 5 ESE 1021,0 0 0,0
21.09.2017 22:00:00 11,7 8,8 4 2 9 5 ESE 1020,7 0 0,0
21.09.2017 21:00:00 12,5 8,4 8 4 9 5 E 1020,4 0 0,0
21.09.2017 20:00:00 14,0 8,3 4 2 13 7 S 1019,8 0 0,0
21.09.2017 19:00:00 15,0 9,1 7 4 15 8 SSE 1019,4 55 0,0
21.09.2017 18:00:00 16,6 8,6 8 5 14 8 SSE 1019,2 60 0,0
21.09.2017 17:00:00 17,0 8,5 9 5 21 12 S 1019,4 60 0,0
21.09.2017 16:00:00 17,2 8,2 10 5 21 11 S 1019,7 60 0,0
21.09.2017 15:00:00 16,7 7,4 9 5 18 10 SSE 1020,0 60 0,0
21.09.2017 14:00:00 16,1 8,1 11 6 22 12 S 1020,5 60 0,0
21.09.2017 13:00:00 15,6 7,9 10 6 20 11 SSE 1021,0 60 0,0
21.09.2017 12:00:00 14,4 7,9 14 8 22 12 SSW 1021,4 - -
21.09.2017 11:00:00 12,8 8,8 6 3 10 6 SSE 1021,9 60 0,0
21.09.2017 10:00:00 9,9 7,9 0 0 6 4 N 1022,2 60 0,0
21.09.2017 09:00:00 9,0 7,2 5 3 11 6 E 1022,0 60 0,0
21.09.2017 08:00:00 6,8 4,8 7 4 13 7 E 1022,4 12 0,0
21.09.2017 07:00:00 6,2 4,6 11 6 12 6 E 1022,4 0 0,0
21.09.2017 06:00:00 6,4 4,9 6 4 9 5 E 1022,5 0 0,0
21.09.2017 05:00:00 6,6 5,2 7 4 11 6 E 1022,6 0 0,0
21.09.2017 04:00:00 6,8 5,2 9 5 12 6 E 1022,7 0 0,0
21.09.2017 03:00:00 6,9 5,5 9 5 10 6 E 1022,9 0 0,0
21.09.2017 02:00:00 7,6 6,2 7 4 10 5 E 1022,9 0 0,0
21.09.2017 01:00:00 7,8 6,2 7 4 13 7 SE 1022,8 0 0,0
21.09.2017 00:00:00 8,4 6,9 10 5 12 7 SSE 1022,9 0 0,0
20.09.2017 23:00:00 9,0 7,2 6 4 11 6 S 1022,8 0 0,0
20.09.2017 22:00:00 9,9 8,0 7 4 13 7 S 1022,7 0 0,0
20.09.2017 21:00:00 10,7 8,0 7 4 13 7 S 1022,7 0 0,0
20.09.2017 20:00:00 11,8 8,3 7 4 13 7 S 1022,4 31 0,0
20.09.2017 19:00:00 12,7 8,6 8 4 19 10 SW 1021,9 20 0,0
20.09.2017 18:00:00 14,3 8,9 14 7 25 14 SSW 1021,8 54 0,0
20.09.2017 17:00:00 13,8 8,8 17 9 24 13 SSW 1022,1 16 0,0
20.09.2017 16:00:00 13,3 8,4 15 8 24 13 SW 1022,5 3 0,0
20.09.2017 15:00:00 13,2 8,3 16 8 24 13 WSW 1022,6 18 0,0
20.09.2017 14:00:00 13,8 8,5 14 8 22 12 SW 1022,7 35 0,0
20.09.2017 13:00:00 12,8 7,8 13 7 24 13 WSW 1023,0 41 0,0
20.09.2017 12:00:00 12,8 7,6 15 8 26 14 SW 1023,4 59 0,0
20.09.2017 11:00:00 11,5 7,5 16 9 23 12 WSW 1023,3 53 0,0
20.09.2017 10:00:00 10,9 8,9 11 6 17 9 SW 1023,3 59 0,0
20.09.2017 09:00:00 10,1 9,7 9 5 17 9 WSW 1023,1 33 0,0
20.09.2017 08:00:00 9,7 9,3 7 4 14 8 SW 1023,2 0 0,0
20.09.2017 07:00:00 10,0 9,6 10 5 19 10 WSW 1022,9 0 0,0
20.09.2017 06:00:00 10,2 9,8 9 5 13 7 SW 1022,7 0 0,0
20.09.2017 05:00:00 10,2 9,8 9 5 15 8 WSW 1022,7 0 0,0
20.09.2017 04:00:00 10,3 9,8 10 5 15 8 WSW 1022,9 0 0,0
20.09.2017 03:00:00 10,3 9,8 9 5 13 7 WSW 1022,8 0 0,0
20.09.2017 02:00:00 9,9 9,2 7 4 10 6 SW 1023,0 0 0,0
20.09.2017 01:00:00 9,6 8,6 8 4 11 6 SSW 1022,9 0 0,0
20.09.2017 00:00:00 9,6 8,2 8 5 10 6 SSW 1023,0 0 0,0
19.09.2017 23:00:00 10,0 8,3 4 2 9 5 SSE 1022,9 0 0,0
19.09.2017 22:00:00 10,0 7,9 5 3 8 4 S 1022,7 0 0,0
19.09.2017 21:00:00 11,6 6,4 0 0 5 3 N 1022,2 0 0,0
19.09.2017 20:00:00 11,9 6,4 4 2 11 6 NNE 1021,4 3 0,0
19.09.2017 19:00:00 13,2 7,4 8 4 16 9 N 1020,9 58 0,0
19.09.2017 18:00:00 14,4 8,1 10 5 19 10 NNW 1020,1 44 0,0
19.09.2017 17:00:00 14,9 9,7 11 6 18 10 W 1019,7 48 0,0
19.09.2017 16:00:00 13,6 9,7 9 5 17 9 WSW 1019,9 55 0,0
19.09.2017 15:00:00 12,7 10,2 16 8 26 14 W 1020,1 16 0,6
19.09.2017 14:00:00 13,5 9,9 11 6 17 9 WSW 1019,8 19 0,0
19.09.2017 13:00:00 11,4 9,4 10 6 16 9 WSW 1020,1 2 0,0
19.09.2017 12:00:00 10,8 8,5 8 4 16 9 W 1019,9 7 0,0
19.09.2017 11:00:00 10,2 9,7 10 6 16 9 WSW 1019,4 3 0,0
19.09.2017 10:00:00 9,6 9,3 10 5 15 8 WSW 1019,1 0 0,0
19.09.2017 09:00:00 9,3 9,0 9 5 15 8 SW 1018,6 0 0,0
19.09.2017 08:00:00 9,1 8,8 11 6 16 9 WSW 1018,4 0 0,0
19.09.2017 07:00:00 9,2 8,9 11 6 18 10 WSW 1018,0 0 0,0
19.09.2017 06:00:00 9,2 8,9 12 7 17 9 SW 1017,7 0 0,0
19.09.2017 05:00:00 9,2 8,8 13 7 19 10 SW 1017,8 0 0,0
19.09.2017 04:00:00 9,2 8,8 12 7 21 11 WSW 1017,9 0 0,0
19.09.2017 03:00:00 9,4 8,9 10 5 20 11 WSW 1018,0 0 0,0
19.09.2017 02:00:00 9,4 8,9 14 8 21 11 WSW 1017,9 0 0,0
19.09.2017 01:00:00 9,2 8,5 13 7 21 11 SW 1017,9 0 0,0
19.09.2017 00:00:00 9,2 8,4 10 5 16 8 SW 1018,0 0 0,0
18.09.2017 23:00:00 9,2 8,4 10 5 16 9 SSW 1018,0 0 0,0
18.09.2017 22:00:00 8,6 7,8 9 5 15 8 SSW 1018,0 0 0,0
18.09.2017 21:00:00 9,3 8,4 11 6 18 10 SW 1017,7 0 0,0
18.09.2017 20:00:00 10,0 8,6 14 8 24 13 SW 1017,1 0 0,6
18.09.2017 19:00:00 11,3 9,4 11 6 19 10 SW 1016,5 19 0,0
18.09.2017 18:00:00 11,2 9,6 9 5 27 15 SW 1016,4 25 1,1
18.09.2017 17:00:00 11,7 7,9 16 9 37 20 SW 1016,5 38 0,0
18.09.2017 16:00:00 12,4 8,2 25 13 36 19 SSW 1016,5 59 0,0
18.09.2017 15:00:00 13,0 8,9 25 13 34 19 SSW 1016,2 56 0,0
18.09.2017 14:00:00 12,1 9,4 22 12 29 15 SSW 1016,4 5 0,0
18.09.2017 13:00:00 10,9 9,6 13 7 22 12 SSW 1016,9 7 0,0
18.09.2017 12:00:00 9,7 9,2 14 7 22 12 SSW 1017,0 0 0,0
18.09.2017 11:00:00 9,0 8,7 13 7 18 10 SSW 1017,0 0 0,1
18.09.2017 10:00:00 8,1 7,9 9 5 13 7 SSW 1016,8 0 1,7
18.09.2017 09:00:00 7,5 7,2 9 5 15 8 S 1016,4 8 1,7
18.09.2017 08:00:00 6,5 6,3 7 4 14 8 S 1016,5 0 0,0
18.09.2017 07:00:00 6,1 5,7 10 5 14 7 S 1016,2 0 0,0
18.09.2017 06:00:00 6,2 5,8 8 5 12 6 SSE 1016,0 0 0,0
18.09.2017 05:00:00 6,6 6,2 6 3 14 8 S 1015,8 0 0,0
18.09.2017 04:00:00 6,5 6,0 8 5 12 6 S 1015,9 0 0,0
18.09.2017 03:00:00 6,6 5,9 6 3 13 7 S 1015,7 0 0,0
18.09.2017 02:00:00 6,9 6,0 7 4 13 7 S 1016,0 0 0,0
18.09.2017 01:00:00 7,4 6,2 5 3 9 5 S 1015,9 0 0,0
18.09.2017 00:00:00 8,3 7,0 6 4 19 10 S 1015,8 0 0,0
17.09.2017 23:00:00 9,3 7,9 12 7 18 10 SW 1015,7 0 0,0

tt = Température de l'air
td = dewpoint
ff = Vitesse du vent
fx = gusts
dd = Direction du vent
ppp = reduced air pressure
sd = Ensoleillement
rr = Quantités de précipitations

stations d'obs. à proximité